Time;durP1;ratioP1;P1;durP2;ratioP2;P2;SDS_P1;SDS_P2;PMS_P1;PMS_P2;Temp;Humidity;BMP_temperature;BMP_pressure;BME280_temperature;BME280_humidity;BME280_pressure;Samples;Min_cycle;Max_cycle;Signal;HPM_P1;HPM_P2
2022/03/21 00:00:09;;;;;;;;;;;;;;;;;;1041983;28;981;-41
2022/03/21 00:00:48;;;;;;;;;;;;;;;;;;1041917;28;680;-40
2022/03/21 00:01:19;;;;;;;;;;;;;;;;;;1042001;28;1016;-41
2022/03/21 00:01:51;;;;;;;;;;;;;;;;;;1042500;28;800;-40
2022/03/21 00:02:22;;;;;;;;;;;;;;;;;;1039970;28;887;-39
2022/03/21 00:02:52;;;;;;;;;;;;;;;;;;1042695;28;858;-40
2022/03/21 00:03:24;;;;;;;;;;;;;;;;;;1040521;28;1659;-40
2022/03/21 00:03:54;;;;;;;;;;;;;;;;;;1040090;28;941;-40
2022/03/21 00:04:24;;;;;;;;;;;;;;;;;;1039755;28;839;-39
2022/03/21 00:04:55;;;;;;;;;;;;;;;;;;1040263;28;891;-39
2022/03/21 00:05:25;;;;;;;;;;;;;;;;;;1040082;28;926;-39
2022/03/21 00:05:57;;;;;;;;;;;;;;;;;;1040265;28;811;-39
2022/03/21 00:06:27;;;;;;;;;;;;;;;;;;1040109;28;815;-39
2022/03/21 00:06:57;;;;;;;;;;;;;;;;;;1040287;28;922;-39
2022/03/21 00:07:28;;;;;;;;;;;;;;;;;;1040091;28;981;-39
2022/03/21 00:07:58;;;;;;;;;;;;;;;;;;1039761;28;792;-39
2022/03/21 00:08:29;;;;;;;;;;;;;;;;;;1040169;28;827;-39
2022/03/21 00:08:59;;;;;;;;;;;;;;;;;;1040207;28;779;-38
2022/03/21 00:09:29;;;;;;;;;;;;;;;;;;1040207;28;925;-39
2022/03/21 00:10:00;;;;;;;;;;;;;;;;;;1040262;28;1312;-39
2022/03/21 00:10:32;;;;;;;;;;;;;;;;;;1039915;28;1971;-40
2022/03/21 00:11:03;;;;;;;;;;;;;;;;;;1040342;28;937;-39
2022/03/21 00:11:33;;;;;;;;;;;;;;;;;;1040228;28;1699;-40
2022/03/21 00:12:04;;;;;;;;;;;;;;;;;;1040231;28;907;-38
2022/03/21 00:12:34;;;;;;;;;;;;;;;;;;1039792;28;1136;-39
2022/03/21 00:13:05;;;;;;;;;;;;;;;;;;1039901;28;918;-39
2022/03/21 00:13:35;;;;;;;;;;;;;;;;;;1037406;28;1435;-39
2022/03/21 00:14:06;;;;;;;;;;;;;;;;;;1036302;28;835;-39
2022/03/21 00:14:36;;;;;;;;;;;;;;;;;;1040135;28;838;-38
2022/03/21 00:15:09;;;;;;;;;;;;;;;;;;1040270;28;981;-39
2022/03/21 00:15:40;;;;;;;;;;;;;;;;;;1039837;28;961;-39
2022/03/21 00:16:12;;;;;;;;;;;;;;;;;;1040185;28;980;-39
2022/03/21 00:16:43;;;;;;;;;;;;;;;;;;1041572;28;1177;-40
2022/03/21 00:17:13;;;;;;;;;;;;;;;;;;1038844;28;948;-39
2022/03/21 00:17:44;;;;;;;;;;;;;;;;;;1040057;28;1159;-40
2022/03/21 00:18:15;;;;;;;;;;;;;;;;;;1040208;28;522;-39
2022/03/21 00:18:45;;;;;;;;;;;;;;;;;;1040227;28;942;-40
2022/03/21 00:19:15;;;;;;;;;;;;;;;;;;1044362;28;960;-39
2022/03/21 00:19:47;;;;;;;;;;;;;;;;;;1044223;28;921;-39
2022/03/21 00:20:17;;;;;;;;;;;;;;;;;;1044171;28;862;-40
2022/03/21 00:20:49;;;;;;;;;;;;;;;;;;1043848;28;846;-40
2022/03/21 00:21:19;;;;;;;;;;;;;;;;;;1044231;28;921;-40
2022/03/21 00:21:49;;;;;;;;;;;;;;;;;;1044370;28;838;-39
2022/03/21 00:22:20;;;;;;;;;;;;;;;;;;1044243;28;969;-39
2022/03/21 00:22:50;;;;;;;;;;;;;;;;;;1044270;28;822;-39
2022/03/21 00:23:22;;;;;;;;;;;;;;;;;;1044241;28;1014;-39
2022/03/21 00:23:52;;;;;;;;;;;;;;;;;;1044219;28;826;-38
2022/03/21 00:24:22;;;;;;;;;;;;;;;;;;1044414;28;837;-39
2022/03/21 00:24:53;;;;;;;;;;;;;;;;;;1044275;28;858;-39
2022/03/21 00:25:23;;;;;;;;;;;;;;;;;;1041215;28;1247;-40
2022/03/21 00:25:54;;;;;;;;;;;;;;;;;;1040205;28;782;-39
2022/03/21 00:26:24;;;;;;;;;;;;;;;;;;1040254;28;858;-39
2022/03/21 00:26:54;;;;;;;;;;;;;;;;;;1040078;28;929;-39
2022/03/21 00:27:36;;;;;;;;;;;;;;;;;;1035553;28;1217;-38
2022/03/21 00:28:09;;;;;;;;;;;;;;;;;;1035622;28;1487;-40
2022/03/21 00:28:39;;;;;;;;;;;;;;;;;;1035624;28;847;-38
2022/03/21 00:29:09;;;;;;;;;;;;;;;;;;1035796;28;972;-38
2022/03/21 00:29:41;;;;;;;;;;;;;;;;;;1035644;28;1465;-39
2022/03/21 00:30:11;;;;;;;;;;;;;;;;;;1039824;28;1914;-39
2022/03/21 00:30:45;;;;;;;;;;;;;;;;;;1035612;28;1148;-39
2022/03/21 00:31:16;;;;;;;;;;;;;;;;;;1035847;28;803;-40
2022/03/21 00:31:49;;;;;;;;;;;;;;;;;;1035556;28;1386;-39
2022/03/21 00:32:20;;;;;;;;;;;;;;;;;;1036865;28;775;-38
2022/03/21 00:32:50;;;;;;;;;;;;;;;;;;1039849;28;926;-40
2022/03/21 00:33:21;;;;;;;;;;;;;;;;;;1035640;28;1172;-39
2022/03/21 00:33:51;;;;;;;;;;;;;;;;;;1035636;28;1449;-39
2022/03/21 00:34:22;;;;;;;;;;;;;;;;;;1035743;28;917;-40
2022/03/21 00:34:52;;;;;;;;;;;;;;;;;;1035764;28;874;-40
2022/03/21 00:35:22;;;;;;;;;;;;;;;;;;1035786;28;871;-38
2022/03/21 00:35:53;;;;;;;;;;;;;;;;;;1035197;28;1111;-39
2022/03/21 00:36:23;;;;;;;;;;;;;;;;;;1035672;28;1021;-39
2022/03/21 00:36:54;;;;;;;;;;;;;;;;;;1035775;28;902;-40
2022/03/21 00:37:24;;;;;;;;;;;;;;;;;;1035814;28;803;-39
2022/03/21 00:37:55;;;;;;;;;;;;;;;;;;1039871;28;894;-38
2022/03/21 00:38:26;;;;;;;;;;;;;;;;;;1040167;28;985;-39
2022/03/21 00:38:57;;;;;;;;;;;;;;;;;;1040166;28;949;-39
2022/03/21 00:39:27;;;;;;;;;;;;;;;;;;1040262;28;1012;-38
2022/03/21 00:39:58;;;;;;;;;;;;;;;;;;1039962;28;942;-40
2022/03/21 00:40:31;;;;;;;;;;;;;;;;;;1040330;28;850;-39
2022/03/21 00:41:02;;;;;;;;;;;;;;;;;;1040041;28;938;-39
2022/03/21 00:41:33;;;;;;;;;;;;;;;;;;1040219;28;1020;-39
2022/03/21 00:42:04;;;;;;;;;;;;;;;;;;1035516;28;882;-39
2022/03/21 00:42:35;;;;;;;;;;;;;;;;;;1035550;28;965;-40
2022/03/21 00:43:08;;;;;;;;;;;;;;;;;;1035544;28;855;-39
2022/03/21 00:43:38;;;;;;;;;;;;;;;;;;1036098;28;982;-39
2022/03/21 00:44:08;;;;;;;;;;;;;;;;;;1040153;28;894;-38
2022/03/21 00:44:39;;;;;;;;;;;;;;;;;;1040195;28;886;-39
2022/03/21 00:45:10;;;;;;;;;;;;;;;;;;1040077;28;953;-39
2022/03/21 00:45:41;;;;;;;;;;;;;;;;;;1040097;28;830;-40
2022/03/21 00:46:11;;;;;;;;;;;;;;;;;;1040106;28;949;-39
2022/03/21 00:46:42;;;;;;;;;;;;;;;;;;1040091;28;882;-39
2022/03/21 00:47:15;;;;;;;;;;;;;;;;;;1040126;28;854;-40
2022/03/21 00:47:47;;;;;;;;;;;;;;;;;;1041533;28;1150;-39
2022/03/21 00:48:18;;;;;;;;;;;;;;;;;;1044170;28;885;-40
2022/03/21 00:48:48;;;;;;;;;;;;;;;;;;1044259;28;877;-40
2022/03/21 00:49:18;;;;;;;;;;;;;;;;;;1044201;28;941;-39
2022/03/21 00:49:52;;;;;;;;;;;;;;;;;;1044351;28;929;-40
2022/03/21 00:50:24;;;;;;;;;;;;;;;;;;1043887;28;2230;-40
2022/03/21 00:50:55;;;;;;;;;;;;;;;;;;1044164;28;976;-40
2022/03/21 00:51:25;;;;;;;;;;;;;;;;;;1044274;28;902;-39
2022/03/21 00:51:56;;;;;;;;;;;;;;;;;;1044167;28;902;-40
2022/03/21 00:52:26;;;;;;;;;;;;;;;;;;1044328;28;873;-40
2022/03/21 00:52:57;;;;;;;;;;;;;;;;;;1044066;28;1024;-40
2022/03/21 00:53:27;;;;;;;;;;;;;;;;;;1044294;28;866;-39
2022/03/21 00:53:57;;;;;;;;;;;;;;;;;;1044201;28;881;-40
2022/03/21 00:54:28;;;;;;;;;;;;;;;;;;1044265;28;946;-39
2022/03/21 00:54:58;;;;;;;;;;;;;;;;;;1044110;28;804;-40
2022/03/21 00:55:29;;;;;;;;;;;;;;;;;;1044310;28;962;-39
2022/03/21 00:56:00;;;;;;;;;;;;;;;;;;1044069;28;906;-39
2022/03/21 00:56:30;;;;;;;;;;;;;;;;;;1044465;28;1005;-39
2022/03/21 00:57:00;;;;;;;;;;;;;;;;;;1044020;28;831;-39
2022/03/21 00:57:31;;;;;;;;;;;;;;;;;;1044033;28;917;-39
2022/03/21 00:58:02;;;;;;;;;;;;;;;;;;1042926;28;968;-38
2022/03/21 00:58:32;;;;;;;;;;;;;;;;;;1044237;28;858;-39
2022/03/21 00:59:04;;;;;;;;;;;;;;;;;;1044023;28;796;-39
2022/03/21 00:59:34;;;;;;;;;;;;;;;;;;1044312;28;834;-39
2022/03/21 01:00:06;;;;;;;;;;;;;;;;;;1044145;28;814;-39
2022/03/21 01:00:36;;;;;;;;;;;;;;;;;;1044219;28;811;-38
2022/03/21 01:01:07;;;;;;;;;;;;;;;;;;1043948;28;937;-41
2022/03/21 01:01:37;;;;;;;;;;;;;;;;;;1044287;28;993;-39
2022/03/21 01:02:12;;;;;;;;;;;;;;;;;;1044293;28;968;-40
2022/03/21 01:02:43;;;;;;;;;;;;;;;;;;1044022;28;1025;-40
2022/03/21 01:03:13;;;;;;;;;;;;;;;;;;1044213;28;810;-39
2022/03/21 01:03:43;;;;;;;;;;;;;;;;;;1044173;28;842;-39
2022/03/21 01:04:14;;;;;;;;;;;;;;;;;;1044139;28;993;-40
2022/03/21 01:04:44;;;;;;;;;;;;;;;;;;1044380;28;910;-40
2022/03/21 01:05:14;;;;;;;;;;;;;;;;;;1039265;28;862;-40
2022/03/21 01:05:45;;;;;;;;;;;;;;;;;;1039844;28;759;-39
2022/03/21 01:06:15;;;;;;;;;;;;;;;;;;1039680;28;910;-39
2022/03/21 01:06:45;;;;;;;;;;;;;;;;;;1039802;28;949;-40
2022/03/21 01:07:16;;;;;;;;;;;;;;;;;;1043972;28;978;-39
2022/03/21 01:07:46;;;;;;;;;;;;;;;;;;1044136;28;898;-39
2022/03/21 01:08:17;;;;;;;;;;;;;;;;;;1044228;28;771;-39
2022/03/21 01:08:47;;;;;;;;;;;;;;;;;;1043792;28;823;-39
2022/03/21 01:09:17;;;;;;;;;;;;;;;;;;1043789;28;889;-39
2022/03/21 01:09:48;;;;;;;;;;;;;;;;;;1043912;28;861;-37
2022/03/21 01:10:19;;;;;;;;;;;;;;;;;;1043579;28;1980;-39
2022/03/21 01:10:49;;;;;;;;;;;;;;;;;;1044187;28;944;-39
2022/03/21 01:11:22;;;;;;;;;;;;;;;;;;1044110;28;937;-39
2022/03/21 01:11:52;;;;;;;;;;;;;;;;;;1044038;28;954;-39
2022/03/21 01:12:23;;;;;;;;;;;;;;;;;;1044249;28;823;-39
2022/03/21 01:12:53;;;;;;;;;;;;;;;;;;1043830;28;882;-39
2022/03/21 01:13:24;;;;;;;;;;;;;;;;;;1044111;28;962;-39
2022/03/21 01:13:54;;;;;;;;;;;;;;;;;;1044111;28;890;-38
2022/03/21 01:14:24;;;;;;;;;;;;;;;;;;1043832;28;820;-38
2022/03/21 01:14:54;;;;;;;;;;;;;;;;;;1043816;28;819;-39
2022/03/21 01:15:25;;;;;;;;;;;;;;;;;;1043955;28;941;-37
2022/03/21 01:15:56;;;;;;;;;;;;;;;;;;1043611;28;922;-39
2022/03/21 01:16:26;;;;;;;;;;;;;;;;;;1044231;28;944;-39
2022/03/21 01:16:57;;;;;;;;;;;;;;;;;;1040997;28;1162;-39
2022/03/21 01:17:28;;;;;;;;;;;;;;;;;;1040111;28;855;-40
2022/03/21 01:17:59;;;;;;;;;;;;;;;;;;1039796;28;803;-39
2022/03/21 01:18:29;;;;;;;;;;;;;;;;;;1040008;28;871;-39
2022/03/21 01:19:00;;;;;;;;;;;;;;;;;;1039966;28;887;-39
2022/03/21 01:19:31;;;;;;;;;;;;;;;;;;1040029;28;807;-40
2022/03/21 01:20:03;;;;;;;;;;;;;;;;;;1039633;28;996;-40
2022/03/21 01:20:33;;;;;;;;;;;;;;;;;;1040192;28;858;-39
2022/03/21 01:21:04;;;;;;;;;;;;;;;;;;1039951;28;816;-40
2022/03/21 01:21:34;;;;;;;;;;;;;;;;;;1040099;28;879;-39
2022/03/21 01:22:06;;;;;;;;;;;;;;;;;;1039882;28;954;-40
2022/03/21 01:22:36;;;;;;;;;;;;;;;;;;1039894;28;929;-39
2022/03/21 01:23:06;;;;;;;;;;;;;;;;;;1040056;28;775;-40
2022/03/21 01:23:37;;;;;;;;;;;;;;;;;;1039965;28;760;-38
2022/03/21 01:24:07;;;;;;;;;;;;;;;;;;1040003;28;763;-39
2022/03/21 01:24:38;;;;;;;;;;;;;;;;;;1040099;28;879;-39
2022/03/21 01:25:09;;;;;;;;;;;;;;;;;;1040681;28;1125;-39
2022/03/21 01:25:39;;;;;;;;;;;;;;;;;;1044060;28;914;-39
2022/03/21 01:26:10;;;;;;;;;;;;;;;;;;1044109;28;921;-38
2022/03/21 01:26:40;;;;;;;;;;;;;;;;;;1044078;28;826;-38
2022/03/21 01:27:11;;;;;;;;;;;;;;;;;;1044183;28;839;-39
2022/03/21 01:27:41;;;;;;;;;;;;;;;;;;1043727;28;835;-39
2022/03/21 01:28:12;;;;;;;;;;;;;;;;;;1044002;28;838;-39
2022/03/21 01:28:42;;;;;;;;;;;;;;;;;;1044033;28;834;-39
2022/03/21 01:29:13;;;;;;;;;;;;;;;;;;1044195;28;787;-39
2022/03/21 01:29:43;;;;;;;;;;;;;;;;;;1044191;28;803;-38
2022/03/21 01:30:14;;;;;;;;;;;;;;;;;;1043834;28;1977;-39
2022/03/21 01:30:44;;;;;;;;;;;;;;;;;;1044167;28;846;-39
2022/03/21 01:31:15;;;;;;;;;;;;;;;;;;1044057;28;862;-39
2022/03/21 01:31:45;;;;;;;;;;;;;;;;;;1044043;28;1049;-39
2022/03/21 01:32:15;;;;;;;;;;;;;;;;;;1044106;28;787;-39
2022/03/21 01:32:46;;;;;;;;;;;;;;;;;;1044104;28;814;-38
2022/03/21 01:33:16;;;;;;;;;;;;;;;;;;1043876;28;941;-39
2022/03/21 01:33:46;;;;;;;;;;;;;;;;;;1044236;28;937;-38
2022/03/21 01:34:17;;;;;;;;;;;;;;;;;;1043958;28;1024;-39
2022/03/21 01:34:47;;;;;;;;;;;;;;;;;;1043924;28;914;-37
2022/03/21 01:35:18;;;;;;;;;;;;;;;;;;1043919;28;842;-39
2022/03/21 01:35:48;;;;;;;;;;;;;;;;;;1044137;28;821;-39
2022/03/21 01:36:19;;;;;;;;;;;;;;;;;;1044029;28;890;-39
2022/03/21 01:36:49;;;;;;;;;;;;;;;;;;1044096;28;818;-39
2022/03/21 01:37:19;;;;;;;;;;;;;;;;;;1044118;28;985;-39
2022/03/21 01:37:50;;;;;;;;;;;;;;;;;;1044002;28;933;-39
2022/03/21 01:38:20;;;;;;;;;;;;;;;;;;1043994;28;934;-39
2022/03/21 01:38:51;;;;;;;;;;;;;;;;;;1044025;28;862;-39
2022/03/21 01:39:21;;;;;;;;;;;;;;;;;;1043998;28;927;-38
2022/03/21 01:39:51;;;;;;;;;;;;;;;;;;1043750;28;704;-38
2022/03/21 01:40:22;;;;;;;;;;;;;;;;;;1043654;28;914;-39
2022/03/21 01:40:52;;;;;;;;;;;;;;;;;;1043607;28;950;-38
2022/03/21 01:41:22;;;;;;;;;;;;;;;;;;1043636;28;854;-39
2022/03/21 01:41:52;;;;;;;;;;;;;;;;;;1044188;28;969;-39
2022/03/21 01:42:23;;;;;;;;;;;;;;;;;;1043635;28;987;-39
2022/03/21 01:42:53;;;;;;;;;;;;;;;;;;1044023;28;879;-39
2022/03/21 01:43:23;;;;;;;;;;;;;;;;;;1043947;28;802;-39
2022/03/21 01:44:04;;;;;;;;;;;;;;;;;;1044007;28;938;-39
2022/03/21 01:44:35;;;;;;;;;;;;;;;;;;1044148;28;890;-39
2022/03/21 01:45:07;;;;;;;;;;;;;;;;;;1043833;28;799;-39
2022/03/21 01:45:37;;;;;;;;;;;;;;;;;;1044173;28;961;-37
2022/03/21 01:46:08;;;;;;;;;;;;;;;;;;1043968;28;859;-38
2022/03/21 01:46:40;;;;;;;;;;;;;;;;;;1044155;28;906;-39
2022/03/21 01:47:11;;;;;;;;;;;;;;;;;;1043944;28;858;-39
2022/03/21 01:47:41;;;;;;;;;;;;;;;;;;1043805;28;1026;-39
2022/03/21 01:48:12;;;;;;;;;;;;;;;;;;1043897;28;907;-39
2022/03/21 01:48:42;;;;;;;;;;;;;;;;;;1044001;28;775;-38
2022/03/21 01:49:13;;;;;;;;;;;;;;;;;;1043905;28;922;-39
2022/03/21 01:49:43;;;;;;;;;;;;;;;;;;1043888;28;1607;-38
2022/03/21 01:50:14;;;;;;;;;;;;;;;;;;1043654;28;1919;-39
2022/03/21 01:50:45;;;;;;;;;;;;;;;;;;1044175;28;871;-39
2022/03/21 01:51:16;;;;;;;;;;;;;;;;;;1043827;28;890;-38
2022/03/21 01:51:46;;;;;;;;;;;;;;;;;;1044163;28;835;-39
2022/03/21 01:52:18;;;;;;;;;;;;;;;;;;1043970;28;870;-37
2022/03/21 01:52:48;;;;;;;;;;;;;;;;;;1044014;28;974;-39
2022/03/21 01:55:58;;;;;;;;;;;;;;;;;;1039264;28;1175;-40
2022/03/21 01:56:28;;;;;;;;;;;;;;;;;;1043960;28;882;-39
2022/03/21 01:56:58;;;;;;;;;;;;;;;;;;1043783;28;814;-39
2022/03/21 01:57:29;;;;;;;;;;;;;;;;;;1043865;28;914;-39
2022/03/21 01:58:00;;;;;;;;;;;;;;;;;;1043822;28;839;-39
2022/03/21 01:58:30;;;;;;;;;;;;;;;;;;1044039;28;842;-40
2022/03/21 01:59:01;;;;;;;;;;;;;;;;;;1044136;28;838;-40
2022/03/21 01:59:32;;;;;;;;;;;;;;;;;;1043901;28;898;-40
2022/03/21 02:00:04;;;;;;;;;;;;;;;;;;1043920;28;863;-40
2022/03/21 02:00:43;;;;;;;;;;;;;;;;;;1035408;28;775;-39
2022/03/21 02:01:14;;;;;;;;;;;;;;;;;;1036868;28;954;-39
2022/03/21 02:01:44;;;;;;;;;;;;;;;;;;1039583;28;941;-40
2022/03/21 02:02:16;;;;;;;;;;;;;;;;;;1040895;28;795;-40
2022/03/21 02:02:46;;;;;;;;;;;;;;;;;;1044145;28;878;-38
2022/03/21 02:03:19;;;;;;;;;;;;;;;;;;1043849;28;818;-40
2022/03/21 02:03:50;;;;;;;;;;;;;;;;;;1044023;28;949;-40
2022/03/21 02:04:20;;;;;;;;;;;;;;;;;;1043759;28;985;-40
2022/03/21 02:04:51;;;;;;;;;;;;;;;;;;1043713;28;965;-40
2022/03/21 02:05:21;;;;;;;;;;;;;;;;;;1043909;28;934;-39
2022/03/21 02:05:51;;;;;;;;;;;;;;;;;;1043951;28;897;-39
2022/03/21 02:06:23;;;;;;;;;;;;;;;;;;1043855;28;882;-38
2022/03/21 02:06:54;;;;;;;;;;;;;;;;;;1043937;28;867;-40
2022/03/21 02:07:25;;;;;;;;;;;;;;;;;;1043763;28;942;-40
2022/03/21 02:07:55;;;;;;;;;;;;;;;;;;1043885;28;874;-40
2022/03/21 02:08:25;;;;;;;;;;;;;;;;;;1043791;28;767;-40
2022/03/21 02:08:57;;;;;;;;;;;;;;;;;;1043834;28;1659;-38
2022/03/21 02:09:27;;;;;;;;;;;;;;;;;;1043656;28;922;-40
2022/03/21 02:09:58;;;;;;;;;;;;;;;;;;1043940;28;1272;-39
2022/03/21 02:10:29;;;;;;;;;;;;;;;;;;1043754;28;1942;-40
2022/03/21 02:11:00;;;;;;;;;;;;;;;;;;1044096;28;973;-38
2022/03/21 02:11:33;;;;;;;;;;;;;;;;;;1043786;28;815;-39
2022/03/21 02:12:04;;;;;;;;;;;;;;;;;;1043847;28;842;-40
2022/03/21 02:12:34;;;;;;;;;;;;;;;;;;1043697;28;766;-39
2022/03/21 02:13:05;;;;;;;;;;;;;;;;;;1044009;28;882;-40
2022/03/21 02:13:36;;;;;;;;;;;;;;;;;;1043836;28;949;-39
2022/03/21 02:14:07;;;;;;;;;;;;;;;;;;1043925;28;775;-41
2022/03/21 02:14:39;;;;;;;;;;;;;;;;;;1043856;28;957;-40
2022/03/21 02:15:11;;;;;;;;;;;;;;;;;;1043854;28;890;-40
2022/03/21 02:15:41;;;;;;;;;;;;;;;;;;1043959;28;874;-39
2022/03/21 02:16:12;;;;;;;;;;;;;;;;;;1043933;28;823;-40
2022/03/21 02:16:42;;;;;;;;;;;;;;;;;;1043823;28;880;-39
2022/03/21 02:17:16;;;;;;;;;;;;;;;;;;1042792;28;1097;-40
2022/03/21 02:17:47;;;;;;;;;;;;;;;;;;1039534;28;882;-40
2022/03/21 02:18:17;;;;;;;;;;;;;;;;;;1039871;28;957;-40
2022/03/21 02:18:48;;;;;;;;;;;;;;;;;;1039610;28;807;-39
2022/03/21 02:19:21;;;;;;;;;;;;;;;;;;1039529;28;861;-39
2022/03/21 02:19:53;;;;;;;;;;;;;;;;;;1039801;28;815;-39
2022/03/21 02:20:23;;;;;;;;;;;;;;;;;;1039676;28;843;-39
2022/03/21 02:20:54;;;;;;;;;;;;;;;;;;1039796;28;839;-38
2022/03/21 02:21:45;;;;;;;;;;;;;;;;;;1039678;28;884;-40
2022/03/21 02:22:39;;;;;;;;;;;;;;;;;;1039738;28;890;-40
2022/03/21 02:23:18;;;;;;;;;;;;;;;;;;1039725;28;945;-40
2022/03/21 02:23:59;;;;;;;;;;;;;;;;;;1039610;28;876;-40
2022/03/21 02:24:51;;;;;;;;;;;;;;;;;;1039696;28;878;-39
2022/03/21 02:25:25;;;;;;;;;;;;;;;;;;1042309;28;1184;-40
2022/03/21 02:25:56;;;;;;;;;;;;;;;;;;1043984;28;878;-39
2022/03/21 02:26:28;;;;;;;;;;;;;;;;;;1043767;28;835;-40
2022/03/21 02:27:00;;;;;;;;;;;;;;;;;;1043601;28;886;-39
2022/03/21 02:27:31;;;;;;;;;;;;;;;;;;1043686;28;901;-39
2022/03/21 02:28:03;;;;;;;;;;;;;;;;;;1043808;28;814;-39
2022/03/21 02:28:34;;;;;;;;;;;;;;;;;;1043831;28;886;-39
2022/03/21 02:29:05;;;;;;;;;;;;;;;;;;1043873;28;850;-39
2022/03/21 02:29:36;;;;;;;;;;;;;;;;;;1043814;28;870;-39
2022/03/21 02:30:07;;;;;;;;;;;;;;;;;;1043806;28;1898;-39
2022/03/21 02:30:38;;;;;;;;;;;;;;;;;;1043791;28;981;-38
2022/03/21 02:31:09;;;;;;;;;;;;;;;;;;1043842;28;934;-39
2022/03/21 02:31:40;;;;;;;;;;;;;;;;;;1043787;28;877;-39
2022/03/21 02:32:10;;;;;;;;;;;;;;;;;;1043823;28;815;-39
2022/03/21 02:32:41;;;;;;;;;;;;;;;;;;1043878;28;973;-39
2022/03/21 02:33:12;;;;;;;;;;;;;;;;;;1043772;28;874;-40
2022/03/21 02:33:43;;;;;;;;;;;;;;;;;;1043732;28;969;-39
2022/03/21 02:34:14;;;;;;;;;;;;;;;;;;1043557;28;958;-40
2022/03/21 02:34:45;;;;;;;;;;;;;;;;;;1043773;28;931;-39
2022/03/21 02:35:16;;;;;;;;;;;;;;;;;;1043776;28;938;-40
2022/03/21 02:35:47;;;;;;;;;;;;;;;;;;1043635;28;937;-40
2022/03/21 02:36:19;;;;;;;;;;;;;;;;;;1043939;28;921;-39
2022/03/21 02:36:52;;;;;;;;;;;;;;;;;;1043755;28;917;-39
2022/03/21 02:37:23;;;;;;;;;;;;;;;;;;1043923;28;823;-40
2022/03/21 02:37:54;;;;;;;;;;;;;;;;;;1043510;28;906;-39
2022/03/21 02:38:25;;;;;;;;;;;;;;;;;;1043870;28;942;-39
2022/03/21 02:38:56;;;;;;;;;;;;;;;;;;1043690;28;1126;-39
2022/03/21 02:39:27;;;;;;;;;;;;;;;;;;1043913;28;815;-40
2022/03/21 02:39:58;;;;;;;;;;;;;;;;;;1043584;28;890;-38
2022/03/21 02:40:29;;;;;;;;;;;;;;;;;;1043883;28;905;-40
2022/03/21 02:40:59;;;;;;;;;;;;;;;;;;1043799;28;819;-40
2022/03/21 02:41:30;;;;;;;;;;;;;;;;;;1043487;28;953;-40
2022/03/21 02:42:01;;;;;;;;;;;;;;;;;;1043809;28;929;-40
2022/03/21 02:42:31;;;;;;;;;;;;;;;;;;1043657;28;845;-39
2022/03/21 02:43:02;;;;;;;;;;;;;;;;;;1043819;28;866;-39
2022/03/21 02:43:47;;;;;;;;;;;;;;;;;;1043809;28;886;-40
2022/03/21 02:44:18;;;;;;;;;;;;;;;;;;1043860;28;958;-39
2022/03/21 02:44:48;;;;;;;;;;;;;;;;;;1043779;28;815;-39
2022/03/21 02:45:18;;;;;;;;;;;;;;;;;;1043835;28;794;-39
2022/03/21 02:45:49;;;;;;;;;;;;;;;;;;1043730;28;941;-39
2022/03/21 02:46:19;;;;;;;;;;;;;;;;;;1043738;28;946;-39
2022/03/21 02:46:50;;;;;;;;;;;;;;;;;;1043728;28;946;-40
2022/03/21 02:47:20;;;;;;;;;;;;;;;;;;1043758;28;926;-39
2022/03/21 02:47:51;;;;;;;;;;;;;;;;;;1043282;28;1097;-40
2022/03/21 02:48:21;;;;;;;;;;;;;;;;;;1043891;28;902;-40
2022/03/21 02:48:54;;;;;;;;;;;;;;;;;;1043408;28;1001;-40
2022/03/21 02:49:24;;;;;;;;;;;;;;;;;;1043818;28;977;-39
2022/03/21 02:49:56;;;;;;;;;;;;;;;;;;1043727;28;974;-39
2022/03/21 02:50:30;;;;;;;;;;;;;;;;;;1043626;28;1921;-40
2022/03/21 02:51:01;;;;;;;;;;;;;;;;;;1043855;28;1766;-40
2022/03/21 02:51:32;;;;;;;;;;;;;;;;;;1043735;28;855;-39
2022/03/21 02:52:04;;;;;;;;;;;;;;;;;;1043689;28;846;-39
2022/03/21 02:52:34;;;;;;;;;;;;;;;;;;1043771;28;874;-39
2022/03/21 02:53:05;;;;;;;;;;;;;;;;;;1043596;28;922;-40
2022/03/21 02:53:38;;;;;;;;;;;;;;;;;;1043867;28;922;-40
2022/03/21 02:54:09;;;;;;;;;;;;;;;;;;1043792;28;902;-40
2022/03/21 02:54:39;;;;;;;;;;;;;;;;;;1043698;28;1055;-39
2022/03/21 02:55:09;;;;;;;;;;;;;;;;;;1043747;28;992;-39
2022/03/21 02:55:40;;;;;;;;;;;;;;;;;;1043671;28;1012;-40
2022/03/21 02:56:10;;;;;;;;;;;;;;;;;;1043385;28;1174;-40
2022/03/21 02:56:41;;;;;;;;;;;;;;;;;;1043682;28;910;-40
2022/03/21 02:57:11;;;;;;;;;;;;;;;;;;1043657;28;862;-39
2022/03/21 02:57:41;;;;;;;;;;;;;;;;;;1043698;28;903;-39
2022/03/21 02:58:12;;;;;;;;;;;;;;;;;;1043586;28;842;-40
2022/03/21 02:58:42;;;;;;;;;;;;;;;;;;1039293;28;885;-39
2022/03/21 02:59:12;;;;;;;;;;;;;;;;;;1039322;28;910;-40
2022/03/21 02:59:43;;;;;;;;;;;;;;;;;;1039352;28;834;-39
2022/03/21 03:00:13;;;;;;;;;;;;;;;;;;1039280;28;942;-40
2022/03/21 03:00:44;;;;;;;;;;;;;;;;;;1043719;28;965;-39
2022/03/21 03:01:15;;;;;;;;;;;;;;;;;;1043687;28;933;-39
2022/03/21 03:01:46;;;;;;;;;;;;;;;;;;1043786;28;846;-39
2022/03/21 03:02:16;;;;;;;;;;;;;;;;;;1043687;28;1009;-39
2022/03/21 03:02:47;;;;;;;;;;;;;;;;;;1043638;28;906;-39
2022/03/21 03:03:17;;;;;;;;;;;;;;;;;;1043702;28;927;-39
2022/03/21 03:03:47;;;;;;;;;;;;;;;;;;1038788;28;934;-37
2022/03/21 03:04:18;;;;;;;;;;;;;;;;;;1039417;28;957;-39
2022/03/21 03:04:48;;;;;;;;;;;;;;;;;;1039237;28;983;-39
2022/03/21 03:05:18;;;;;;;;;;;;;;;;;;1039358;28;874;-40
2022/03/21 03:05:49;;;;;;;;;;;;;;;;;;1043749;28;779;-39
2022/03/21 03:06:20;;;;;;;;;;;;;;;;;;1043711;28;886;-40
2022/03/21 03:06:50;;;;;;;;;;;;;;;;;;1043636;28;811;-39
2022/03/21 03:07:20;;;;;;;;;;;;;;;;;;1043716;28;813;-40
2022/03/21 03:07:51;;;;;;;;;;;;;;;;;;1043547;28;954;-40
2022/03/21 03:08:21;;;;;;;;;;;;;;;;;;1043770;28;931;-39
2022/03/21 03:08:51;;;;;;;;;;;;;;;;;;1043695;28;929;-40
2022/03/21 03:09:22;;;;;;;;;;;;;;;;;;1043717;28;895;-38
2022/03/21 03:09:52;;;;;;;;;;;;;;;;;;1043659;28;1350;-39
2022/03/21 03:10:22;;;;;;;;;;;;;;;;;;1043606;28;2005;-41
2022/03/21 03:10:52;;;;;;;;;;;;;;;;;;1043601;28;950;-40
2022/03/21 03:11:23;;;;;;;;;;;;;;;;;;1043354;28;886;-40
2022/03/21 03:11:53;;;;;;;;;;;;;;;;;;1043631;28;777;-40
2022/03/21 03:12:24;;;;;;;;;;;;;;;;;;1043793;28;799;-40
2022/03/21 03:12:54;;;;;;;;;;;;;;;;;;1043504;28;926;-40
2022/03/21 03:13:24;;;;;;;;;;;;;;;;;;1043726;28;961;-39
2022/03/21 03:13:55;;;;;;;;;;;;;;;;;;1043723;28;779;-40
2022/03/21 03:14:25;;;;;;;;;;;;;;;;;;1043611;28;842;-40
2022/03/21 03:14:55;;;;;;;;;;;;;;;;;;1043737;28;791;-38
2022/03/21 03:15:26;;;;;;;;;;;;;;;;;;1043519;28;922;-40
2022/03/21 03:15:56;;;;;;;;;;;;;;;;;;1043693;28;881;-40
2022/03/21 03:16:27;;;;;;;;;;;;;;;;;;1043672;28;969;-40
2022/03/21 03:16:57;;;;;;;;;;;;;;;;;;1043680;28;897;-40
2022/03/21 03:17:27;;;;;;;;;;;;;;;;;;1040333;28;1117;-39
2022/03/21 03:17:58;;;;;;;;;;;;;;;;;;1039512;28;1013;-39
2022/03/21 03:18:28;;;;;;;;;;;;;;;;;;1039188;28;875;-40
2022/03/21 03:18:58;;;;;;;;;;;;;;;;;;1039723;28;827;-39
2022/03/21 03:19:28;;;;;;;;;;;;;;;;;;1039414;28;886;-40
2022/03/21 03:19:59;;;;;;;;;;;;;;;;;;1039630;28;882;-40
2022/03/21 03:20:29;;;;;;;;;;;;;;;;;;1039431;28;838;-40
2022/03/21 03:21:00;;;;;;;;;;;;;;;;;;1039039;28;1653;-40
2022/03/21 03:21:35;;;;;;;;;;;;;;;;;;1039620;28;906;-39
2022/03/21 03:22:08;;;;;;;;;;;;;;;;;;1039453;28;784;-40
2022/03/21 03:22:38;;;;;;;;;;;;;;;;;;1039499;28;1179;-39
2022/03/21 03:23:09;;;;;;;;;;;;;;;;;;1039465;28;1637;-40
2022/03/21 03:23:40;;;;;;;;;;;;;;;;;;1039554;28;823;-39
2022/03/21 03:24:11;;;;;;;;;;;;;;;;;;1039419;28;804;-40
2022/03/21 03:24:41;;;;;;;;;;;;;;;;;;1039536;28;934;-40
2022/03/21 03:25:12;;;;;;;;;;;;;;;;;;1040779;28;1259;-39
2022/03/21 03:25:42;;;;;;;;;;;;;;;;;;1043720;28;1001;-39
2022/03/21 03:26:12;;;;;;;;;;;;;;;;;;1043264;28;945;-40
2022/03/21 03:26:43;;;;;;;;;;;;;;;;;;1043800;28;783;-39
2022/03/21 03:27:13;;;;;;;;;;;;;;;;;;1043547;28;934;-40
2022/03/21 03:27:43;;;;;;;;;;;;;;;;;;1043537;28;942;-39
2022/03/21 03:28:14;;;;;;;;;;;;;;;;;;1043567;28;1103;-39
2022/03/21 03:28:44;;;;;;;;;;;;;;;;;;1043617;28;768;-39
2022/03/21 03:29:15;;;;;;;;;;;;;;;;;;1043641;28;922;-40
2022/03/21 03:29:45;;;;;;;;;;;;;;;;;;1043714;28;929;-40
2022/03/21 03:30:15;;;;;;;;;;;;;;;;;;1043402;28;1914;-40
2022/03/21 03:30:45;;;;;;;;;;;;;;;;;;1043536;28;972;-39
2022/03/21 03:31:17;;;;;;;;;;;;;;;;;;1043631;28;934;-40
2022/03/21 03:31:48;;;;;;;;;;;;;;;;;;1043487;28;1002;-40
2022/03/21 03:32:18;;;;;;;;;;;;;;;;;;1043673;28;815;-39
2022/03/21 03:32:50;;;;;;;;;;;;;;;;;;1043493;28;834;-40
2022/03/21 03:33:21;;;;;;;;;;;;;;;;;;1043503;28;851;-40
2022/03/21 03:33:52;;;;;;;;;;;;;;;;;;1043486;28;1025;-40
2022/03/21 03:34:22;;;;;;;;;;;;;;;;;;1043496;28;902;-40
2022/03/21 03:34:53;;;;;;;;;;;;;;;;;;1043603;28;878;-40
2022/03/21 03:35:24;;;;;;;;;;;;;;;;;;1043594;28;808;-38
2022/03/21 03:35:54;;;;;;;;;;;;;;;;;;1043569;28;1145;-39
2022/03/21 03:36:25;;;;;;;;;;;;;;;;;;1043672;28;858;-39
2022/03/21 03:36:55;;;;;;;;;;;;;;;;;;1043567;28;906;-40
2022/03/21 03:37:26;;;;;;;;;;;;;;;;;;1043701;28;831;-40
2022/03/21 03:37:56;;;;;;;;;;;;;;;;;;1043440;28;889;-40
2022/03/21 03:38:26;;;;;;;;;;;;;;;;;;1043572;28;938;-40
2022/03/21 03:38:57;;;;;;;;;;;;;;;;;;1043660;28;832;-39
2022/03/21 03:39:28;;;;;;;;;;;;;;;;;;1043616;28;887;-40
2022/03/21 03:39:59;;;;;;;;;;;;;;;;;;1043624;28;933;-40
2022/03/21 03:40:29;;;;;;;;;;;;;;;;;;1043521;28;989;-40
2022/03/21 03:40:59;;;;;;;;;;;;;;;;;;1043313;28;874;-39
2022/03/21 03:41:30;;;;;;;;;;;;;;;;;;1043634;28;792;-40